Time;durP1;ratioP1;P1;durP2;ratioP2;P2;SDS_P1;SDS_P2;PMS_P1;PMS_P2;Temp;Humidity;BMP_temperature;BMP_pressure;BME280_temperature;BME280_humidity;BME280_pressure;Samples;Min_cycle;Max_cycle;Signal;HPM_P1;HPM_P2
2024/01/31 00:00:38;;;;;;;34.92;15.02;;;;;;;3.10;100.00;95427.75;5091142;28;20043;-66
2024/01/31 00:03:05;;;;;;;31.38;14.52;;;;;;;3.09;100.00;95426.16;5090575;28;20044;-67
2024/01/31 00:05:32;;;;;;;37.33;16.83;;;;;;;3.06;100.00;95421.41;5091127;28;20405;-68
2024/01/31 00:07:59;;;;;;;36.53;15.70;;;;;;;3.07;100.00;95414.84;5088978;28;20531;-66
2024/01/31 00:10:26;;;;;;;28.70;14.03;;;;;;;3.07;100.00;95416.75;5080924;28;20048;-67
2024/01/31 00:12:53;;;;;;;30.23;14.25;;;;;;;2.99;100.00;95419.19;5083959;28;20032;-66
2024/01/31 00:15:20;;;;;;;34.30;15.88;;;;;;;2.94;100.00;95422.13;5089601;28;20444;-67
2024/01/31 00:17:47;;;;;;;43.78;19.85;;;;;;;2.97;100.00;95418.72;5085572;28;20121;-67
2024/01/31 00:20:14;;;;;;;40.72;19.02;;;;;;;2.99;100.00;95413.75;5070199;28;20039;-65
2024/01/31 00:22:41;;;;;;;33.17;16.03;;;;;;;2.62;100.00;95420.88;5070523;28;20106;-66
2024/01/31 00:25:08;;;;;;;28.33;14.38;;;;;;;2.69;100.00;95420.34;5071888;28;20041;-65
2024/01/31 00:27:35;;;;;;;27.05;13.15;;;;;;;2.39;100.00;95426.56;5089897;28;20032;-65
2024/01/31 00:30:03;;;;;;;30.17;14.88;;;;;;;2.36;100.00;95426.44;5089636;28;20109;-65
2024/01/31 00:32:30;;;;;;;37.33;17.77;;;;;;;2.31;100.00;95419.25;5090525;28;20534;-65
2024/01/31 00:34:57;;;;;;;28.30;14.27;;;;;;;2.42;100.00;95413.50;5090376;28;20456;-65
2024/01/31 00:37:24;;;;;;;24.48;12.45;;;;;;;2.49;100.00;95416.47;5083492;28;21835;-65
2024/01/31 00:39:51;;;;;;;25.38;12.85;;;;;;;2.44;100.00;95409.34;5070349;28;20040;-65
2024/01/31 00:42:18;;;;;;;24.50;13.13;;;;;;;2.45;100.00;95410.13;5069591;28;20414;-66
2024/01/31 00:44:45;;;;;;;22.98;12.15;;;;;;;2.44;100.00;95408.53;5070081;28;20406;-65
2024/01/31 00:47:12;;;;;;;24.60;12.50;;;;;;;2.48;100.00;95404.06;5089522;28;20048;-65
2024/01/31 00:49:39;;;;;;;24.20;12.40;;;;;;;2.50;100.00;95410.72;5084052;28;20456;-65
2024/01/31 00:52:05;;;;;;;24.17;11.65;;;;;;;2.39;100.00;95410.31;5069765;28;20048;-66
2024/01/31 00:54:32;;;;;;;23.02;11.85;;;;;;;2.46;100.00;95411.72;5076194;28;20141;-65
2024/01/31 00:56:59;;;;;;;21.35;11.13;;;;;;;2.52;100.00;95407.69;5089493;28;20043;-65
2024/01/31 00:59:26;;;;;;;23.53;11.30;;;;;;;2.52;100.00;95413.13;5069829;28;20483;-65
2024/01/31 01:01:53;;;;;;;22.42;10.93;;;;;;;2.58;100.00;95409.09;5082992;28;20479;-65
2024/01/31 01:04:19;;;;;;;20.95;10.88;;;;;;;2.65;100.00;95403.16;5088950;28;20044;-66
2024/01/31 01:06:46;;;;;;;20.83;11.40;;;;;;;2.67;100.00;95414.47;5089977;28;20100;-65
2024/01/31 01:09:13;;;;;;;22.15;11.35;;;;;;;2.63;100.00;95410.81;5069155;28;20048;-65
2024/01/31 01:11:40;;;;;;;21.80;11.50;;;;;;;2.71;100.00;95413.47;5069472;28;20041;-65
2024/01/31 01:14:07;;;;;;;23.58;11.15;;;;;;;2.69;100.00;95423.84;5079158;28;20046;-65
2024/01/31 01:16:33;;;;;;;21.05;11.20;;;;;;;2.62;100.00;95420.88;5089892;28;20040;-65
2024/01/31 01:19:01;;;;;;;21.63;10.98;;;;;;;2.67;100.00;95433.44;5074171;28;20043;-65
2024/01/31 01:21:27;;;;;;;26.35;13.48;;;;;;;2.51;100.00;95433.97;5078954;28;20047;-66
2024/01/31 01:23:54;;;;;;;26.17;12.03;;;;;;;2.38;100.00;95426.91;5089308;28;20471;-65
2024/01/31 01:26:21;;;;;;;23.52;12.30;;;;;;;2.53;100.00;95420.91;5089416;28;20482;-65
2024/01/31 01:28:48;;;;;;;21.65;11.15;;;;;;;2.59;100.00;95416.09;5089754;28;20051;-65
2024/01/31 01:31:14;;;;;;;24.17;11.50;;;;;;;2.46;100.00;95423.34;5088881;28;20584;-65
2024/01/31 01:33:42;;;;;;;20.10;11.25;;;;;;;2.52;100.00;95419.34;5089279;28;20417;-65
2024/01/31 01:36:09;;;;;;;20.50;10.27;;;;;;;2.50;100.00;95412.66;5080222;28;20483;-65
2024/01/31 01:38:38;;;;;;;21.30;10.52;;;;;;;2.35;100.00;95424.81;5068289;28;20041;-65
2024/01/31 01:41:05;;;;;;;23.65;12.00;;;;;;;1.97;100.00;95422.88;5069193;28;20402;-65
2024/01/31 01:43:32;;;;;;;27.65;13.77;;;;;;;2.02;100.00;95419.22;5072019;28;20044;-65
2024/01/31 01:46:14;;;;;;;31.13;14.70;;;;;;;1.85;100.00;95417.34;5089044;28;20089;-64
2024/01/31 01:48:45;;;;;;;29.23;13.67;;;;;;;2.10;100.00;95421.91;5089390;28;20054;-65
2024/01/31 01:51:20;;;;;;;27.80;12.68;;;;;;;2.25;100.00;95420.56;5088582;28;20066;-65
2024/01/31 01:53:48;;;;;;;26.48;12.77;;;;;;;2.24;100.00;95415.50;5089022;28;20048;-66
2024/01/31 01:56:19;;;;;;;23.90;12.55;;;;;;;2.26;100.00;95421.38;5076183;28;20288;-66
2024/01/31 01:58:50;;;;;;;22.08;11.60;;;;;;;2.24;100.00;95416.28;5089149;28;20048;-65
2024/01/31 02:01:17;;;;;;;21.40;11.30;;;;;;;2.17;100.00;95419.50;5088920;28;20054;-65
2024/01/31 02:03:45;;;;;;;22.17;10.68;;;;;;;2.13;100.00;95425.88;5088826;28;20048;-65
2024/01/31 02:06:13;;;;;;;24.33;11.20;;;;;;;2.03;100.00;95418.09;5078107;28;20071;-65
2024/01/31 02:08:40;;;;;;;23.60;11.25;;;;;;;1.84;100.00;95426.59;5068987;28;20052;-65
2024/01/31 02:11:07;;;;;;;23.25;11.43;;;;;;;1.96;100.00;95427.50;5068504;28;20411;-65
2024/01/31 02:13:34;;;;;;;21.13;10.87;;;;;;;1.97;100.00;95425.59;5074431;28;20096;-65
2024/01/31 02:16:00;;;;;;;20.00;10.70;;;;;;;1.98;100.00;95425.28;5088390;28;20044;-65
2024/01/31 02:18:28;;;;;;;20.02;10.55;;;;;;;2.02;100.00;95427.34;5078307;28;20052;-65
2024/01/31 02:20:55;;;;;;;19.33;10.00;;;;;;;2.05;100.00;95423.97;5086808;28;20513;-65
2024/01/31 02:23:22;;;;;;;19.65;10.52;;;;;;;2.08;100.00;95420.66;5088356;28;20071;-65
2024/01/31 02:25:49;;;;;;;19.00;10.13;;;;;;;2.07;100.00;95419.03;5089188;28;20056;-65
2024/01/31 02:28:16;;;;;;;18.75;10.48;;;;;;;2.08;100.00;95424.13;5088134;28;20048;-65
2024/01/31 02:30:43;;;;;;;19.95;10.55;;;;;;;1.95;100.00;95420.53;5088706;28;20044;-65
2024/01/31 02:33:10;;;;;;;18.20;9.63;;;;;;;1.98;100.00;95422.56;5088421;28;20040;-65
2024/01/31 02:35:37;;;;;;;19.17;9.88;;;;;;;1.94;100.00;95415.44;5088491;28;20044;-65
2024/01/31 02:38:04;;;;;;;17.57;9.20;;;;;;;1.88;100.00;95403.97;5086963;28;20464;-65
2024/01/31 02:40:31;;;;;;;17.85;9.80;;;;;;;1.75;100.00;95402.25;5075194;28;20036;-65
2024/01/31 02:42:59;;;;;;;16.75;9.15;;;;;;;1.52;100.00;95407.09;5088559;28;20044;-65
2024/01/31 02:45:29;;;;;;;17.20;9.27;;;;;;;1.61;100.00;95410.59;5087581;28;21715;-65
2024/01/31 02:47:56;;;;;;;17.17;9.35;;;;;;;1.60;100.00;95420.59;5088408;28;20050;-65
2024/01/31 02:50:25;;;;;;;20.47;10.50;;;;;;;1.03;100.00;95418.09;5090941;28;20048;-66
2024/01/31 02:52:52;;;;;;;18.63;10.15;;;;;;;1.06;100.00;95406.63;5092201;28;20070;-65
2024/01/31 02:55:19;;;;;;;19.58;10.80;;;;;;;1.20;100.00;95406.47;5079383;28;20394;-65
2024/01/31 02:57:46;;;;;;;22.58;10.00;;;;;;;1.24;100.00;95414.75;5078329;28;20036;-65
2024/01/31 03:00:13;;;;;;;18.42;8.82;;;;;;;1.00;100.00;95406.00;5091842;28;20044;-65
2024/01/31 03:02:44;;;;;;;23.83;11.27;;;;;;;1.00;100.00;95406.00;5091718;28;20305;-65
2024/01/31 03:05:14;;;;;;;25.85;11.75;;;;;;;1.04;100.00;95403.44;5091425;28;20424;-65
2024/01/31 03:07:41;;;;;;;27.75;12.77;;;;;;;1.04;100.00;95403.44;5092141;28;20447;-65
2024/01/31 03:10:09;;;;;;;25.60;11.48;;;;;;;0.98;100.00;95405.50;5091178;28;20043;-65
2024/01/31 03:12:37;;;;;;;22.75;11.43;;;;;;;0.97;100.00;95397.75;5083876;28;20052;-65
2024/01/31 03:15:04;;;;;;;23.37;11.47;;;;;;;0.97;100.00;95401.22;5089001;28;20040;-65
2024/01/31 03:17:35;;;;;;;23.60;11.00;;;;;;;1.02;100.00;95402.97;5086767;28;20375;-65
2024/01/31 03:20:06;;;;;;;22.75;11.02;;;;;;;0.98;100.00;95400.09;5091550;28;20054;-65
2024/01/31 03:22:36;;;;;;;23.65;11.38;;;;;;;0.99;100.00;95398.22;5090896;28;20584;-65
2024/01/31 03:25:04;;;;;;;20.70;11.38;;;;;;;0.94;100.00;95403.78;5091313;28;20100;-66
2024/01/31 03:27:31;;;;;;;23.33;10.97;;;;;;;0.95;100.00;95403.47;5091929;28;20062;-65
2024/01/31 03:30:01;;;;;;;22.52;11.07;;;;;;;0.95;100.00;95405.38;5089936;28;20044;-65
2024/01/31 03:32:34;;;;;;;20.65;10.32;;;;;;;0.97;100.00;95393.13;5070606;28;21251;-65
2024/01/31 03:35:01;;;;;;;21.42;11.20;;;;;;;0.96;100.00;95388.81;5070907;28;20630;-65
2024/01/31 03:37:27;;;;;;;20.75;11.55;;;;;;;0.88;100.00;95399.63;5071085;28;20401;-65
2024/01/31 03:39:54;;;;;;;22.60;11.73;;;;;;;0.77;100.00;95402.66;5079070;28;20452;-65
2024/01/31 03:42:21;;;;;;;22.67;10.75;;;;;;;0.87;100.00;95403.47;5091180;28;20048;-66
2024/01/31 03:44:48;;;;;;;19.63;10.45;;;;;;;0.81;100.00;95410.13;5091461;28;20066;-65
2024/01/31 03:47:15;;;;;;;21.17;10.52;;;;;;;0.71;100.00;95409.31;5090778;28;20407;-65
2024/01/31 03:49:42;;;;;;;20.55;10.55;;;;;;;0.77;100.00;95418.06;5090951;28;20052;-65
2024/01/31 03:52:09;;;;;;;20.13;10.43;;;;;;;0.86;100.00;95413.47;5090625;28;20140;-66
2024/01/31 03:54:35;;;;;;;20.23;10.50;;;;;;;0.89;100.00;95417.44;5091196;28;20036;-65
2024/01/31 03:57:02;;;;;;;22.27;11.57;;;;;;;0.92;100.00;95422.22;5090068;28;20042;-65
2024/01/31 03:59:29;;;;;;;24.50;10.77;;;;;;;0.94;100.00;95417.28;5070851;28;20430;-65
2024/01/31 04:01:56;;;;;;;23.23;11.85;;;;;;;0.95;100.00;95424.28;5070597;28;20051;-65
2024/01/31 04:04:22;;;;;;;29.47;11.77;;;;;;;0.92;100.00;95430.31;5052566;28;20044;-65
2024/01/31 04:06:49;;;;;;;20.55;10.77;;;;;;;0.86;100.00;95431.59;5070724;28;20040;-65
2024/01/31 04:09:16;;;;;;;20.25;10.65;;;;;;;0.82;100.00;95417.91;5070117;28;20045;-65
2024/01/31 04:11:43;;;;;;;21.85;10.95;;;;;;;0.86;100.00;95428.88;5070427;28;20052;-66
2024/01/31 04:14:10;;;;;;;19.42;10.80;;;;;;;0.78;100.00;95425.06;5067782;28;20047;-65
2024/01/31 04:16:36;;;;;;;21.43;10.77;;;;;;;0.52;100.00;95425.78;5070544;28;20052;-65
2024/01/31 04:19:03;;;;;;;21.27;10.50;;;;;;;0.55;100.00;95422.47;5076904;28;20036;-65
2024/01/31 04:21:30;;;;;;;22.25;11.52;;;;;;;0.53;100.00;95416.59;5074977;28;20042;-65
2024/01/31 04:23:57;;;;;;;20.92;10.77;;;;;;;0.56;100.00;95415.16;5090307;28;20054;-65
2024/01/31 04:26:24;;;;;;;23.50;11.20;;;;;;;0.58;100.00;95418.34;5089926;28;20047;-64
2024/01/31 04:28:52;;;;;;;18.90;10.27;;;;;;;0.58;100.00;95415.63;5090498;28;20065;-64
2024/01/31 04:31:18;;;;;;;22.50;10.63;;;;;;;0.61;100.00;95414.22;5089592;28;20156;-66
2024/01/31 04:33:45;;;;;;;18.77;10.15;;;;;;;0.58;100.00;95415.63;5090140;28;20384;-67
2024/01/31 04:36:12;;;;;;;19.27;9.80;;;;;;;0.62;100.00;95413.91;5089970;28;20040;-68
2024/01/31 04:38:39;;;;;;;22.65;11.70;;;;;;;0.52;100.00;95414.97;5089734;28;20044;-67
2024/01/31 04:41:06;;;;;;;20.43;9.77;;;;;;;0.24;100.00;95417.13;5089748;28;20501;-67
2024/01/31 04:43:33;;;;;;;19.55;10.30;;;;;;;0.23;100.00;95415.56;5089791;28;20406;-66
2024/01/31 04:46:00;;;;;;;21.45;11.10;;;;;;;0.26;100.00;95420.31;5089378;28;20054;-67
2024/01/31 04:48:27;;;;;;;21.15;10.50;;;;;;;0.28;100.00;95418.13;5089748;28;20062;-64
2024/01/31 04:50:54;;;;;;;22.15;10.68;;;;;;;0.18;100.00;95421.91;5089710;28;20093;-64
2024/01/31 04:53:21;;;;;;;21.67;10.93;;;;;;;0.22;100.00;95422.03;5089476;28;20051;-65
2024/01/31 04:55:47;;;;;;;25.52;11.98;;;;;;;0.30;100.00;95423.19;5089703;28;20040;-64
2024/01/31 04:58:14;;;;;;;23.85;11.32;;;;;;;0.30;100.00;95423.19;5089330;28;20036;-64
2024/01/31 05:00:41;;;;;;;29.45;14.45;;;;;;;0.34;100.00;95424.97;5089709;28;20138;-65
2024/01/31 05:03:08;;;;;;;36.40;17.95;;;;;;;0.37;100.00;95435.13;5089337;28;20044;-65
2024/01/31 05:05:36;;;;;;;28.50;14.30;;;;;;;0.36;100.00;95427.34;5077143;28;20036;-65
2024/01/31 05:08:05;;;;;;;27.77;13.80;;;;;;;0.29;100.00;95432.41;5077933;28;20042;-65
2024/01/31 05:10:34;;;;;;;26.38;13.48;;;;;;;0.24;100.00;95432.53;5074791;28;20040;-65
2024/01/31 05:13:01;;;;;;;30.90;16.10;;;;;;;0.19;100.00;95433.47;5088762;28;20588;-65
2024/01/31 05:15:30;;;;;;;29.35;15.88;;;;;;;0.11;100.00;95428.84;5089374;28;20039;-65
2024/01/31 05:17:59;;;;;;;31.15;15.93;;;;;;;0.17;100.00;95436.47;5083408;28;20037;-64
2024/01/31 05:20:27;;;;;;;33.40;15.88;;;;;;;0.17;100.00;95424.91;5068499;28;20187;-65
2024/01/31 05:22:54;;;;;;;64.18;28.73;;;;;;;0.23;100.00;95433.66;5069572;28;20040;-64
2024/01/31 05:25:21;;;;;;;59.92;26.48;;;;;;;0.23;100.00;95434.44;5088167;28;20040;-64
2024/01/31 05:27:50;;;;;;;33.25;15.65;;;;;;;0.13;100.00;95440.13;5088271;28;20069;-63
2024/01/31 05:30:17;;;;;;;27.73;14.17;;;;;;;-0.02;100.00;95434.03;5088813;28;20109;-64
2024/01/31 05:32:46;;;;;;;27.35;13.30;;;;;;;-0.22;100.00;95448.06;5089552;28;20040;-64
2024/01/31 05:35:13;;;;;;;26.48;13.45;;;;;;;-0.15;100.00;95445.72;5075786;28;20039;-64
2024/01/31 05:37:40;;;;;;;26.60;12.80;;;;;;;-0.23;100.00;95449.16;5089381;28;20047;-64
2024/01/31 05:40:08;;;;;;;27.00;13.32;;;;;;;-0.44;100.00;95448.88;5075548;28;20414;-64
2024/01/31 05:42:35;;;;;;;22.37;11.87;;;;;;;-0.34;100.00;95450.50;5089315;28;20035;-64
2024/01/31 05:45:03;;;;;;;30.08;13.52;;;;;;;-0.13;100.00;95456.97;5088581;28;20055;-64
2024/01/31 05:47:29;;;;;;;26.42;13.45;;;;;;;-0.09;100.00;95460.66;5087684;28;20487;-64
2024/01/31 05:49:56;;;;;;;29.95;14.48;;;;;;;-0.08;100.00;95467.66;5081712;28;20483;-66
2024/01/31 05:52:24;;;;;;;30.13;14.50;;;;;;;-0.06;100.00;95462.75;5068647;28;20040;-65
2024/01/31 05:54:50;;;;;;;29.87;14.90;;;;;;;-0.05;100.00;95460.84;5069322;28;20045;-64
2024/01/31 05:57:17;;;;;;;29.83;14.85;;;;;;;-0.03;100.00;95462.13;5083173;28;20059;-64
2024/01/31 05:59:44;;;;;;;31.77;14.88;;;;;;;0.00;100.00;95460.72;5088836;28;20069;-65
2024/01/31 06:02:11;;;;;;;26.63;14.43;;;;;;;-0.02;100.00;95458.31;5086374;28;20054;-66
2024/01/31 06:04:38;;;;;;;31.42;15.57;;;;;;;-0.05;100.00;95456.22;5088870;28;20448;-65
2024/01/31 06:07:05;;;;;;;34.83;14.60;;;;;;;-0.08;100.00;95464.97;5088993;28;20044;-65
2024/01/31 06:09:31;;;;;;;33.83;15.60;;;;;;;-0.01;100.00;95462.59;5089086;28;20444;-64
2024/01/31 06:11:58;;;;;;;47.65;22.77;;;;;;;-0.02;100.00;95463.72;5089264;28;20048;-65
2024/01/31 06:14:25;;;;;;;37.38;17.50;;;;;;;-0.02;100.00;95463.72;5087990;28;20379;-64
2024/01/31 06:16:52;;;;;;;36.03;15.80;;;;;;;0.03;100.00;95470.88;5077354;28;20050;-64
2024/01/31 06:19:18;;;;;;;31.83;15.23;;;;;;;0.02;100.00;95474.69;5070712;28;20134;-64
2024/01/31 06:21:45;;;;;;;31.38;15.57;;;;;;;-0.01;100.00;95475.31;5069226;28;20041;-64
2024/01/31 06:24:12;;;;;;;29.65;13.60;;;;;;;-0.08;100.00;95483.03;5068331;28;20036;-64
2024/01/31 06:26:40;;;;;;;37.47;18.17;;;;;;;-0.14;100.00;95485.09;5071601;28;20119;-64
2024/01/31 06:29:07;;;;;;;78.70;20.17;;;;;;;-0.18;100.00;95480.59;5074973;28;20054;-64
2024/01/31 06:31:40;;;;;;;34.95;14.85;;;;;;;-0.21;100.00;95484.72;5093239;28;20047;-63
2024/01/31 06:34:07;;;;;;;32.75;13.75;;;;;;;-0.10;100.00;95494.16;5092410;28;20099;-63
2024/01/31 06:36:34;;;;;;;29.20;14.20;;;;;;;0.05;100.00;95508.38;5092616;28;20032;-64
2024/01/31 06:39:01;;;;;;;27.50;12.50;;;;;;;0.20;100.00;95497.16;5091929;28;20040;-64
2024/01/31 06:41:28;;;;;;;31.15;12.82;;;;;;;0.19;100.00;95495.56;5075383;28;20117;-64
2024/01/31 06:43:55;;;;;;;25.93;12.00;;;;;;;0.22;100.00;95488.75;5072423;28;20042;-63
2024/01/31 06:46:22;;;;;;;41.08;14.23;;;;;;;0.20;100.00;95494.44;5072125;28;20040;-63
2024/01/31 06:48:49;;;;;;;33.38;13.10;;;;;;;0.19;100.00;95487.47;5084028;28;20143;-64
2024/01/31 06:51:16;;;;;;;35.25;14.15;;;;;;;0.27;100.00;95491.31;5091628;28;20099;-64
2024/01/31 06:53:44;;;;;;;56.45;17.23;;;;;;;0.27;100.00;95489.41;5092552;28;20366;-64
2024/01/31 06:56:16;;;;;;;41.73;13.97;;;;;;;0.19;100.00;95479.38;5087277;28;20129;-65
2024/01/31 06:58:45;;;;;;;38.92;14.65;;;;;;;0.31;100.00;95489.59;5084944;28;20047;-63
2024/01/31 07:01:15;;;;;;;31.55;13.32;;;;;;;0.26;100.00;95482.41;5089613;28;20401;-63
2024/01/31 07:03:44;;;;;;;26.15;12.45;;;;;;;0.34;100.00;95489.78;5092658;28;20048;-64
2024/01/31 07:06:11;;;;;;;27.58;13.95;;;;;;;0.34;100.00;95497.06;5074075;28;20418;-65
2024/01/31 07:08:39;;;;;;;32.10;15.40;;;;;;;0.42;100.00;95493.59;5072396;28;20045;-64
2024/01/31 07:11:10;;;;;;;28.88;14.65;;;;;;;0.45;100.00;95503.78;5071800;28;20058;-63
2024/01/31 07:13:39;;;;;;;36.90;16.10;;;;;;;0.58;100.00;95500.19;5071975;28;20063;-64
2024/01/31 07:16:09;;;;;;;40.13;17.70;;;;;;;0.65;100.00;95496.25;5071571;28;20375;-64
2024/01/31 07:18:41;;;;;;;40.90;16.65;;;;;;;0.82;100.00;95503.59;5075887;28;20401;-65
2024/01/31 07:21:08;;;;;;;37.80;16.30;;;;;;;0.87;100.00;95503.47;5073188;28;20033;-64
2024/01/31 07:23:39;;;;;;;29.70;13.98;;;;;;;1.05;100.00;95505.09;5092146;28;20036;-65
2024/01/31 07:26:06;;;;;;;25.75;13.75;;;;;;;0.94;100.00;95511.88;5091572;28;20052;-64
2024/01/31 07:28:36;;;;;;;27.95;13.63;;;;;;;0.55;100.00;95510.81;5090734;28;20393;-64
2024/01/31 07:31:05;;;;;;;27.45;12.90;;;;;;;0.81;100.00;95512.81;5091403;28;20042;-64
2024/01/31 07:33:34;;;;;;;29.57;14.37;;;;;;;0.93;100.00;95513.81;5091947;28;20039;-64
2024/01/31 07:36:02;;;;;;;35.40;14.48;;;;;;;1.14;100.00;95511.28;5090802;28;20070;-64
2024/01/31 07:38:29;;;;;;;28.95;14.40;;;;;;;1.30;100.00;95510.84;5091618;28;20032;-64
2024/01/31 07:40:56;;;;;;;26.10;13.25;;;;;;;1.28;100.00;95507.66;5091857;28;20040;-64
2024/01/31 07:43:24;;;;;;;28.30;13.50;;;;;;;1.01;100.00;95501.41;5086422;28;20117;-67
2024/01/31 07:45:51;;;;;;;25.17;12.17;;;;;;;1.04;100.00;95510.81;5071724;28;20140;-67
2024/01/31 07:48:17;;;;;;;25.77;12.75;;;;;;;1.10;100.00;95513.03;5070958;28;20045;-67
2024/01/31 07:50:45;;;;;;;23.73;12.75;;;;;;;1.34;100.00;95501.75;5083735;28;20040;-67
2024/01/31 07:53:12;;;;;;;26.75;12.73;;;;;;;1.17;100.00;95507.16;5090917;28;20044;-67
2024/01/31 07:55:39;;;;;;;24.75;12.85;;;;;;;1.36;100.00;95506.88;5090683;28;20038;-64
2024/01/31 07:58:05;;;;;;;25.00;12.83;;;;;;;1.25;100.00;95500.97;5090681;28;20036;-64
2024/01/31 08:00:32;;;;;;;23.15;12.27;;;;;;;1.45;100.00;95502.25;5089457;28;20320;-65
2024/01/31 08:02:59;;;;;;;23.40;12.13;;;;;;;1.84;100.00;95491.56;5089418;28;20084;-64
2024/01/31 08:05:26;;;;;;;21.70;11.63;;;;;;;1.90;100.00;95482.94;5091266;28;20044;-65
2024/01/31 08:07:53;;;;;;;23.65;11.48;;;;;;;2.13;100.00;95480.84;5074289;28;20544;-63
2024/01/31 08:10:20;;;;;;;21.60;11.90;;;;;;;2.13;100.00;95480.84;5070129;28;20044;-64
2024/01/31 08:12:48;;;;;;;22.25;11.30;;;;;;;2.03;100.00;95485.78;5070346;28;20044;-64
2024/01/31 08:15:15;;;;;;;22.80;11.52;;;;;;;2.08;100.00;95483.72;5082932;28;20048;-65
2024/01/31 08:17:42;;;;;;;25.15;11.80;;;;;;;2.32;100.00;95485.09;5086288;28;20036;-64
2024/01/31 08:20:09;;;;;;;24.15;12.32;;;;;;;2.54;100.00;95490.25;5081997;28;20486;-64
2024/01/31 08:22:36;;;;;;;23.93;12.70;;;;;;;2.18;100.00;95482.56;5090105;28;20048;-64
2024/01/31 08:25:06;;;;;;;25.20;12.85;;;;;;;2.13;100.00;95491.69;5090110;28;20040;-64
2024/01/31 08:27:34;;;;;;;27.35;13.95;;;;;;;2.18;100.00;95482.56;5083962;28;20093;-64
2024/01/31 08:30:01;;;;;;;27.63;14.02;;;;;;;2.60;100.00;95480.03;5069778;28;20044;-64
2024/01/31 08:32:28;;;;;;;25.58;13.50;;;;;;;2.64;100.00;95478.25;5075490;28;20047;-64
2024/01/31 08:34:55;;;;;;;25.37;13.10;;;;;;;2.67;100.00;95474.88;5090650;28;20085;-64
2024/01/31 08:37:22;;;;;;;27.05;13.77;;;;;;;2.78;100.00;95481.53;5089418;28;20094;-65
2024/01/31 08:39:49;;;;;;;25.67;13.50;;;;;;;3.13;100.00;95475.91;5070307;28;20059;-64
2024/01/31 08:42:15;;;;;;;26.27;13.30;;;;;;;3.56;100.00;95490.25;5083339;28;20044;-65
2024/01/31 08:44:42;;;;;;;23.08;12.65;;;;;;;3.82;100.00;95481.91;5076861;28;20048;-65
2024/01/31 08:47:09;;;;;;;25.50;13.37;;;;;;;3.93;100.00;95476.88;5075234;28;20043;-64
2024/01/31 08:49:45;;;;;;;24.05;12.70;;;;;;;4.04;100.00;95474.50;5069734;28;20041;-65
2024/01/31 08:52:13;;;;;;;21.05;11.35;;;;;;;4.14;100.00;95480.31;5069238;28;20059;-65
2024/01/31 08:54:40;;;;;;;21.73;11.73;;;;;;;5.33;100.00;95479.47;5078933;28;20157;-65
2024/01/31 08:57:07;;;;;;;22.35;12.05;;;;;;;6.18;100.00;95472.13;5089321;28;20104;-64
2024/01/31 08:59:33;;;;;;;20.67;11.17;;;;;;;7.63;100.00;95468.94;5079791;28;20113;-64
2024/01/31 09:02:00;;;;;;;17.95;10.63;;;;;;;8.12;100.00;95456.63;5085590;28;20047;-64
2024/01/31 09:04:27;;;;;;;19.90;11.13;;;;;;;7.18;100.00;95457.44;5089605;28;20046;-65
2024/01/31 09:06:54;;;;;;;21.95;11.57;;;;;;;6.33;100.00;95461.59;5074812;28;20044;-65
2024/01/31 09:09:22;;;;;;;23.92;12.65;;;;;;;7.36;100.00;95452.38;5079198;28;20382;-65
2024/01/31 09:11:49;;;;;;;18.87;11.80;;;;;;;9.45;100.00;95456.06;5069571;28;20498;-64
2024/01/31 09:14:15;;;;;;;19.75;11.60;;;;;;;8.98;100.00;95449.91;5076723;28;20056;-66
2024/01/31 09:16:42;;;;;;;21.17;11.80;;;;;;;7.26;100.00;95447.44;5089290;28;20096;-64
2024/01/31 09:19:09;;;;;;;20.15;11.88;;;;;;;7.69;100.00;95447.59;5071443;28;20040;-64
2024/01/31 09:21:36;;;;;;;21.40;13.15;;;;;;;6.63;100.00;95445.59;5084005;28;20039;-64
2024/01/31 09:24:03;;;;;;;25.13;14.57;;;;;;;6.29;100.00;95447.09;5088883;28;20421;-65
2024/01/31 09:26:30;;;;;;;24.45;13.90;;;;;;;5.97;100.00;95457.94;5089343;28;20092;-64
2024/01/31 09:28:57;;;;;;;25.27;14.77;;;;;;;5.87;100.00;95458.41;5082526;28;20038;-65
2024/01/31 09:31:25;;;;;;;28.23;15.48;;;;;;;6.68;100.00;95453.53;5088030;28;20036;-64
2024/01/31 09:33:53;;;;;;;27.95;14.82;;;;;;;7.33;100.00;95449.56;5075149;28;20051;-64
2024/01/31 09:36:21;;;;;;;27.17;15.13;;;;;;;7.88;100.00;95444.84;5086547;28;20044;-64
2024/01/31 09:38:48;;;;;;;26.17;14.65;;;;;;;7.76;100.00;95445.75;5089787;28;20493;-64
2024/01/31 09:41:19;;;;;;;26.33;15.80;;;;;;;6.70;100.00;95442.25;5087661;28;20052;-64
2024/01/31 09:43:46;;;;;;;26.70;15.25;;;;;;;7.00;100.00;95437.94;5089560;28;20040;-64
2024/01/31 09:46:15;;;;;;;24.13;14.20;;;;;;;7.51;100.00;95444.47;5089359;28;20036;-64
2024/01/31 09:48:42;;;;;;;25.13;15.00;;;;;;;11.03;100.00;95436.63;5078799;28;20097;-65
2024/01/31 09:51:09;;;;;;;27.30;15.30;;;;;;;13.28;78.81;95435.78;5068854;28;20040;-65
2024/01/31 09:53:36;;;;;;;25.55;15.00;;;;;;;11.07;85.66;95434.69;5080881;28;20050;-65
2024/01/31 09:56:05;;;;;;;24.95;15.57;;;;;;;9.32;100.00;95450.03;5088879;28;20044;-65
2024/01/31 09:58:32;;;;;;;30.50;17.00;;;;;;;8.26;100.00;95448.66;5089480;28;20066;-64
2024/01/31 10:01:02;;;;;;;30.73;16.83;;;;;;;7.99;100.00;95448.56;5091452;28;20530;-64
2024/01/31 10:03:39;;;;;;;29.08;15.82;;;;;;;7.81;100.00;95450.16;5094012;28;20036;-65
2024/01/31 10:06:06;;;;;;;28.55;15.80;;;;;;;8.60;100.00;95440.69;5092946;28;20044;-64
2024/01/31 10:08:38;;;;;;;28.42;16.70;;;;;;;9.65;100.00;95443.81;5093329;28;20040;-64
2024/01/31 10:11:06;;;;;;;30.17;15.63;;;;;;;10.35;100.00;95441.50;5092740;28;20061;-65
2024/01/31 10:13:32;;;;;;;30.63;17.10;;;;;;;9.44;100.00;95436.09;5085144;28;20044;-65
2024/01/31 10:15:59;;;;;;;28.35;17.08;;;;;;;9.69;100.00;95436.41;5087766;28;20563;-64
2024/01/31 10:18:28;;;;;;;30.38;16.75;;;;;;;10.59;94.71;95434.69;5082816;28;20040;-65
2024/01/31 10:20:59;;;;;;;27.70;17.02;;;;;;;11.26;88.26;95432.84;5075265;28;20045;-65
2024/01/31 10:23:26;;;;;;;27.70;17.52;;;;;;;12.57;84.71;95431.03;5092416;28;21755;-65
2024/01/31 10:25:53;;;;;;;27.30;16.97;;;;;;;14.88;69.79;95412.63;5093129;28;20058;-65
2024/01/31 10:28:21;;;;;;;26.85;16.60;;;;;;;16.02;63.01;95407.16;5092961;28;20044;-65
2024/01/31 10:30:48;;;;;;;25.10;16.40;;;;;;;18.14;56.19;95405.31;5091456;28;20052;-66
2024/01/31 10:33:15;;;;;;;23.17;15.57;;;;;;;18.62;49.72;95405.88;5083445;28;20559;-65
2024/01/31 10:35:45;;;;;;;21.83;15.55;;;;;;;16.52;52.79;95404.53;5084982;28;20048;-65
2024/01/31 10:38:32;;;;;;;20.87;14.93;;;;;;;17.00;52.60;95396.28;5092327;28;20116;-66
2024/01/31 10:41:01;;;;;;;20.90;14.77;;;;;;;16.23;53.59;95398.56;5078568;28;20040;-65
2024/01/31 10:43:29;;;;;;;21.77;14.20;;;;;;;17.04;54.50;95391.47;5092959;28;20054;-65
2024/01/31 10:45:56;;;;;;;19.77;13.52;;;;;;;17.91;52.76;95397.06;5092859;28;20088;-65
2024/01/31 10:48:22;;;;;;;19.55;13.23;;;;;;;18.33;49.98;95395.41;5092211;28;20044;-66
2024/01/31 10:50:53;;;;;;;17.57;12.77;;;;;;;18.84;47.81;95395.06;5091537;28;20421;-66
2024/01/31 10:53:21;;;;;;;16.23;12.68;;;;;;;19.97;45.78;95386.22;5092644;28;20074;-65
2024/01/31 10:55:49;;;;;;;17.52;12.82;;;;;;;20.20;43.98;95387.94;5089220;28;20049;-66
2024/01/31 10:58:16;;;;;;;18.77;13.05;;;;;;;19.04;45.83;95369.94;5082525;28;20078;-65
2024/01/31 11:00:47;;;;;;;18.20;13.57;;;;;;;19.12;46.59;95370.56;5092458;28;20405;-64
2024/01/31 11:03:16;;;;;;;19.00;13.87;;;;;;;19.72;44.80;95376.56;5091858;28;20035;-64
2024/01/31 11:05:43;;;;;;;19.38;14.32;;;;;;;19.91;44.97;95365.69;5092576;28;20066;-64
2024/01/31 11:08:20;;;;;;;19.35;14.27;;;;;;;21.52;43.20;95359.91;5091938;28;20122;-65
2024/01/31 11:10:48;;;;;;;19.73;14.07;;;;;;;22.07;40.59;95351.16;5090900;28;20060;-64
2024/01/31 11:13:15;;;;;;;19.00;14.15;;;;;;;21.58;42.49;95343.34;5077850;28;20032;-64
2024/01/31 11:15:44;;;;;;;18.53;13.10;;;;;;;22.60;40.04;95337.19;5092278;28;20396;-64
2024/01/31 11:18:12;;;;;;;24.88;15.45;;;;;;;23.66;38.38;95338.81;5090434;28;20048;-65